Time;durP1;ratioP1;P1;durP2;ratioP2;P2;SDS_P1;SDS_P2;PMS_P1;PMS_P2;Temp;Humidity;BMP_temperature;BMP_pressure;BME280_temperature;BME280_humidity;BME280_pressure;Samples;Min_cycle;Max_cycle;Signal;HPM_P1;HPM_P2
2023/12/08 00:00:48;;;;;;;;;10.00;10.00;;;;;11.64;100.00;99765.22;4886437;29;44968;-86
2023/12/08 00:03:13;;;;;;;;;7.67;6.67;;;;;11.73;100.00;99773.13;4886421;29;45411;-86
2023/12/08 00:05:39;;;;;;;;;8.67;7.33;;;;;11.77;99.66;99774.00;4886685;29;45296;-87
2023/12/08 00:08:04;;;;;;;;;11.00;10.00;;;;;11.73;100.00;99777.56;4884701;29;45648;-87
2023/12/08 00:11:20;;;;;;;;;11.00;11.00;;;;;12.03;100.00;99776.50;4885175;29;45507;-87
2023/12/08 00:13:45;;;;;;;;;11.33;9.00;;;;;11.77;100.00;99781.97;4885374;29;45436;-88
2023/12/08 00:16:10;;;;;;;;;8.00;7.00;;;;;11.84;100.00;99777.53;4869533;29;45491;-87
2023/12/08 00:18:36;;;;;;;;;7.67;7.67;;;;;11.78;100.00;99781.97;4885965;29;45460;-86
2023/12/08 00:21:02;;;;;;;;;9.67;9.33;;;;;11.95;100.00;99797.00;4884740;29;45513;-88
2023/12/08 00:23:28;;;;;;;;;11.00;8.67;;;;;11.98;100.00;99792.53;4886410;29;45429;-87
2023/12/08 00:25:53;;;;;;;;;8.00;7.33;;;;;12.03;100.00;99784.50;4870640;29;45312;-87
2023/12/08 00:28:20;;;;;;;;;9.33;7.67;;;;;12.31;100.00;99797.63;4870819;29;47689;-88
2023/12/08 00:30:45;;;;;;;;;8.00;8.00;;;;;12.11;100.00;99797.78;4886187;29;45148;-87
2023/12/08 00:33:11;;;;;;;;;8.33;8.00;;;;;12.14;100.00;99792.41;4886182;29;46037;-87
2023/12/08 00:35:36;;;;;;;;;4.00;4.00;;;;;12.12;100.00;99776.47;4870145;28;49062;-86
2023/12/08 00:38:02;;;;;;;;;8.00;8.00;;;;;12.24;100.00;99793.22;4886455;29;45494;-87
2023/12/08 00:40:28;;;;;;;;;7.00;6.00;;;;;12.04;100.00;99772.06;4870376;29;44849;-87
2023/12/08 00:42:53;;;;;;;;;7.00;7.00;;;;;12.29;100.00;99802.97;4870088;28;45252;-87
2023/12/08 00:45:19;;;;;;;;;6.00;6.00;;;;;12.42;100.00;99811.75;4868731;28;45591;-87
2023/12/08 00:47:45;;;;;;;;;7.00;7.00;;;;;12.35;99.66;99802.91;4885251;29;45424;-87
2023/12/08 00:50:10;;;;;;;;;4.00;4.00;;;;;12.39;99.81;99804.66;4868709;29;45185;-87
2023/12/08 00:52:36;;;;;;;;;7.00;5.67;;;;;12.28;100.00;99778.97;4866595;29;45559;-87
2023/12/08 00:55:01;;;;;;;;;9.33;6.67;;;;;12.41;99.90;99780.66;4866491;29;44853;-87
2023/12/08 00:57:27;;;;;;;;;6.00;4.00;;;;;12.42;99.98;99790.41;4867473;29;47282;-86
2023/12/08 00:59:52;;;;;;;;;6.67;6.67;;;;;12.47;99.93;99790.38;4868167;29;45474;-88
2023/12/08 01:02:18;;;;;;;;;9.00;6.00;;;;;12.44;100.00;99793.94;4868865;29;45482;-88
2023/12/08 01:04:43;;;;;;;;;7.33;7.33;;;;;12.40;99.18;99787.78;4867322;29;45354;-87
2023/12/08 01:07:16;;;;;;;;;8.00;8.00;;;;;12.48;98.90;99798.38;4884814;29;46120;-87
2023/12/08 01:09:42;;;;;;;;;6.33;6.33;;;;;12.30;99.65;99793.19;4868382;28;45342;-88
2023/12/08 01:12:07;;;;;;;;;9.00;6.33;;;;;12.40;99.94;99797.53;4884261;29;45300;-87
2023/12/08 01:14:33;;;;;;;;;6.67;6.00;;;;;12.44;98.50;99809.06;4883623;29;45349;-87
2023/12/08 01:16:58;;;;;;;;;7.33;7.33;;;;;12.38;99.01;99797.56;4866346;29;47470;-87
2023/12/08 01:19:23;;;;;;;;;9.00;7.33;;;;;12.41;99.52;99816.19;4883615;29;45586;-87
2023/12/08 01:21:49;;;;;;;;;8.00;7.33;;;;;12.31;99.70;99798.50;4866004;29;45437;-87
2023/12/08 01:24:15;;;;;;;;;7.00;7.00;;;;;12.50;99.80;99817.00;4865771;29;45415;-87
2023/12/08 01:26:44;;;;;;;;;8.00;6.00;;;;;12.79;100.00;99820.31;4864870;29;47028;-86
2023/12/08 01:29:13;;;;;;;;;7.00;6.33;;;;;12.59;99.98;99832.94;4880689;29;45874;-87
2023/12/08 01:31:38;;;;;;;;;7.00;7.00;;;;;12.57;99.51;99824.97;4864725;29;45792;-87
2023/12/08 01:34:04;;;;;;;;;6.67;4.67;;;;;12.65;99.96;99821.34;4866445;29;45512;-87
2023/12/08 01:36:29;;;;;;;;;7.00;7.00;;;;;12.61;99.71;99809.81;4883073;29;45593;-87
2023/12/08 01:38:55;;;;;;;;;9.67;8.67;;;;;12.64;99.34;99819.56;4865979;29;45639;-88
2023/12/08 01:41:20;;;;;;;;;7.00;6.67;;;;;12.66;99.35;99825.78;4866308;29;45464;-87
2023/12/08 01:43:46;;;;;;;;;7.33;7.33;;;;;12.66;99.60;99818.66;4866392;29;45357;-87
2023/12/08 01:46:15;;;;;;;;;7.67;7.67;;;;;12.90;99.43;99828.19;4884722;29;45484;-88
2023/12/08 01:48:42;;;;;;;;;6.67;6.67;;;;;12.83;99.29;99829.19;4868166;29;45457;-88
2023/12/08 01:51:11;;;;;;;;;6.00;6.00;;;;;12.87;99.38;99830.91;4868447;29;45321;-88
2023/12/08 01:53:36;;;;;;;;;8.00;6.67;;;;;12.71;99.42;99826.63;4868017;29;45402;-87
2023/12/08 01:56:02;;;;;;;;;8.67;8.33;;;;;12.76;99.56;99832.78;4885215;29;45775;-87
2023/12/08 01:58:28;;;;;;;;;7.33;4.33;;;;;12.73;99.25;99830.16;4867752;29;45402;-87
2023/12/08 02:00:54;;;;;;;;;6.67;6.67;;;;;12.74;99.36;99834.59;4883955;28;45038;-87
2023/12/08 02:03:23;;;;;;;;;9.00;6.67;;;;;12.87;99.51;99844.25;4868097;29;45476;-87
2023/12/08 02:05:48;;;;;;;;;7.33;7.33;;;;;12.73;99.51;99846.16;4883779;28;45295;-86
2023/12/08 02:08:14;;;;;;;;;12.33;8.00;;;;;12.87;99.63;99848.72;4884126;29;45383;-87
2023/12/08 02:10:39;;;;;;;;;8.67;8.67;;;;;12.77;99.29;99842.56;4884090;29;45300;-88
2023/12/08 02:13:05;;;;;;;;;7.00;6.67;;;;;12.85;98.89;99856.72;4883411;29;45461;-88
2023/12/08 02:15:31;;;;;;;;;8.67;8.33;;;;;12.75;99.28;99855.91;4867017;29;47328;-87
2023/12/08 02:17:57;;;;;;;;;8.00;6.00;;;;;12.88;98.90;99854.00;4870039;29;45518;-87
2023/12/08 02:20:22;;;;;;;;;9.33;7.67;;;;;12.64;99.07;99846.25;4869893;29;45490;-87
2023/12/08 02:23:22;;;;;;;;;7.00;7.00;;;;;13.07;97.76;99872.50;4887688;29;45452;-87
2023/12/08 02:25:54;;;;;;;;;8.33;7.67;;;;;12.92;98.82;99869.09;4851700;29;47105;-87
2023/12/08 02:28:19;;;;;;;;;10.67;9.00;;;;;12.67;99.10;99872.91;4852225;29;45750;-87
2023/12/08 02:30:44;;;;;;;;;9.67;9.33;;;;;12.66;99.31;99864.00;4852341;29;45041;-87
2023/12/08 02:33:30;;;;;;;;;12.00;7.67;;;;;12.92;98.73;99866.44;4851302;29;45500;-87
2023/12/08 02:35:58;;;;;;;;;8.33;8.00;;;;;12.74;99.87;99856.81;4852654;29;47377;-87
2023/12/08 02:38:25;;;;;;;;;10.67;10.67;;;;;12.74;100.00;99858.59;4868020;29;45300;-86
2023/12/08 02:40:51;;;;;;;;;7.67;7.00;;;;;12.70;99.41;99867.53;4851746;29;45500;-87
2023/12/08 02:43:16;;;;;;;;;11.67;9.00;;;;;12.67;99.79;99851.56;4853037;29;45382;-87
2023/12/08 02:45:41;;;;;;;;;7.67;7.67;;;;;12.77;100.00;99855.91;4851993;29;47007;-87
2023/12/08 02:48:07;;;;;;;;;10.00;9.00;;;;;12.80;99.90;99850.53;4868797;29;45424;-87
2023/12/08 02:50:32;;;;;;;;;12.33;10.33;;;;;12.73;100.00;99848.84;4869773;29;45481;-87
2023/12/08 02:53:00;;;;;;;;;9.33;8.33;;;;;12.79;99.81;99859.47;4866437;29;45497;-87
2023/12/08 02:55:26;;;;;;;;;9.00;8.67;;;;;12.78;99.47;99857.66;4850843;29;47368;-88
2023/12/08 02:57:51;;;;;;;;;12.33;9.33;;;;;12.78;99.23;99857.66;4851783;29;45381;-88
2023/12/08 03:00:17;;;;;;;;;9.33;9.33;;;;;12.80;99.34;99858.53;4869682;29;45458;-86
2023/12/08 03:02:42;;;;;;;;;14.00;13.00;;;;;12.72;99.11;99849.72;4868484;29;45393;-86
2023/12/08 03:05:08;;;;;;;;;12.33;7.67;;;;;12.76;99.05;99857.66;4852877;29;47220;-87
2023/12/08 03:07:33;;;;;;;;;12.67;10.33;;;;;12.61;99.63;99840.03;4869965;29;45691;-88
2023/12/08 03:09:59;;;;;;;;;11.33;10.00;;;;;12.76;99.35;99843.47;4869170;29;45426;-88
2023/12/08 03:12:25;;;;;;;;;13.33;10.33;;;;;12.96;99.38;99836.13;4870430;29;45425;-88
2023/12/08 03:14:51;;;;;;;;;12.00;10.33;;;;;12.71;99.54;99810.63;4869908;29;46610;-89
2023/12/08 03:17:17;;;;;;;;;10.00;9.33;;;;;12.99;98.99;99837.91;4869529;29;45791;-88
2023/12/08 03:19:43;;;;;;;;;9.33;7.00;;;;;12.90;99.39;99844.22;4852082;29;45519;-88
2023/12/08 03:22:08;;;;;;;;;9.33;8.33;;;;;12.89;99.49;99841.56;4868602;29;45444;-88
2023/12/08 03:24:33;;;;;;;;;11.33;11.33;;;;;12.92;99.40;99847.75;4859386;29;48168;-88
2023/12/08 03:26:59;;;;;;;;;14.00;13.00;;;;;12.91;99.14;99840.66;4868007;29;45433;-88
2023/12/08 03:29:24;;;;;;;;;10.33;9.00;;;;;12.95;99.76;99849.53;4885340;29;45531;-87
2023/12/08 03:31:49;;;;;;;;;11.33;10.33;;;;;12.95;99.22;99847.72;4869747;29;45422;-87
2023/12/08 03:34:15;;;;;;;;;12.33;8.33;;;;;12.89;99.43;99847.78;4870281;29;47285;-88
2023/12/08 03:36:40;;;;;;;;;15.33;12.00;;;;;13.04;98.75;99884.13;4884964;29;45427;-87
2023/12/08 03:39:05;;;;;;;;;8.00;8.00;;;;;13.02;98.26;99880.56;4868614;28;45389;-88
2023/12/08 03:41:31;;;;;;;;;14.00;13.33;;;;;12.96;99.31;99869.97;4885456;29;45500;-89
2023/12/08 03:43:57;;;;;;;;;9.33;9.00;;;;;13.00;99.17;99883.25;4885905;29;48697;-88
2023/12/08 03:46:23;;;;;;;;;13.33;8.33;;;;;13.05;99.15;99879.66;4870762;28;45783;-87
2023/12/08 03:48:49;;;;;;;;;9.00;7.33;;;;;13.17;99.48;99868.88;4870884;29;45401;-87
2023/12/08 03:51:14;;;;;;;;;7.33;7.33;;;;;13.02;99.29;99878.78;4870788;29;45293;-87
2023/12/08 03:53:40;;;;;;;;;11.00;7.00;;;;;13.06;98.47;99886.78;4887622;28;45372;-88
2023/12/08 03:56:07;;;;;;;;;8.67;8.67;;;;;13.23;99.34;99891.94;4869854;28;44925;-88
2023/12/08 03:58:33;;;;;;;;;6.33;6.33;;;;;13.09;99.36;99906.31;4869341;29;45438;-88
2023/12/08 04:01:00;;;;;;;;;8.00;8.00;;;;;13.30;99.03;99902.56;4868224;29;45447;-86
2023/12/08 04:03:25;;;;;;;;;7.00;7.00;;;;;13.14;98.70;99908.94;4869002;29;47197;-88
2023/12/08 04:05:51;;;;;;;;;8.33;6.00;;;;;13.15;99.41;99913.41;4867523;29;45725;-88
2023/12/08 04:08:16;;;;;;;;;8.00;6.67;;;;;13.20;99.17;99917.75;4882532;29;45472;-87
2023/12/08 04:10:42;;;;;;;;;12.67;8.67;;;;;13.12;99.15;99914.28;4885218;28;45519;-88
2023/12/08 04:13:49;;;;;;;;;10.67;10.67;;;;;13.38;98.64;99910.50;4889222;28;45378;-87
2023/12/08 04:16:15;;;;;;;;;7.67;7.67;;;;;13.21;98.95;99937.34;4882977;29;45292;-88
2023/12/08 04:18:40;;;;;;;;;8.67;7.00;;;;;12.97;98.40;99914.44;4868810;29;45353;-89
2023/12/08 04:21:06;;;;;;;;;6.67;6.67;;;;;13.22;98.11;99957.81;4868375;29;45508;-87
2023/12/08 04:23:35;;;;;;;;;9.00;7.67;;;;;13.38;98.03;99948.78;4889828;29;47054;-87
2023/12/08 04:26:06;;;;;;;;;12.00;9.33;;;;;13.25;98.73;99922.16;4850639;29;45412;-86
2023/12/08 04:28:31;;;;;;;;;9.00;8.33;;;;;13.06;98.77;99926.81;4866345;29;45456;-87
2023/12/08 04:30:57;;;;;;;;;7.00;7.00;;;;;13.23;99.04;99937.31;4866233;29;45437;-89
2023/12/08 04:35:57;;;;;;;;;13.00;8.33;;;;;13.01;98.94;99911.72;4903472;28;45359;-86
2023/12/08 04:38:22;;;;;;;;;9.00;8.00;;;;;13.17;99.04;99932.94;4888746;29;45643;-87
2023/12/08 04:40:48;;;;;;;;;10.67;8.67;;;;;13.23;98.89;99942.66;4905769;29;45459;-88
2023/12/08 04:43:16;;;;;;;;;6.00;6.00;;;;;13.44;99.25;99939.81;4908072;29;46355;-88
2023/12/08 04:45:43;;;;;;;;;9.67;8.33;;;;;13.30;99.25;99939.97;4887098;29;44971;-87
2023/12/08 04:48:08;;;;;;;;;8.00;8.00;;;;;13.26;99.02;99964.88;4885717;29;60738;-87
2023/12/08 04:50:33;;;;;;;;;10.00;7.00;;;;;13.26;99.21;99951.53;4887886;29;45663;-87
2023/12/08 04:52:59;;;;;;;;;11.00;9.67;;;;;13.25;99.17;99960.47;4888739;29;46977;-87
2023/12/08 04:55:24;;;;;;;;;13.00;10.00;;;;;13.21;99.41;99948.91;4888597;29;44889;-87
2023/12/08 04:57:50;;;;;;;;;9.00;9.00;;;;;13.31;99.14;99973.78;4888130;29;45708;-88
2023/12/08 05:00:16;;;;;;;;;12.00;8.00;;;;;13.10;99.35;99944.56;4888740;29;45405;-87
2023/12/08 05:03:02;;;;;;;;;8.33;7.33;;;;;13.28;98.67;99923.03;4905256;29;46261;-87
2023/12/08 05:05:34;;;;;;;;;14.33;8.33;;;;;13.07;99.28;99936.56;4887652;29;45418;-88
2023/12/08 05:08:00;;;;;;;;;12.67;11.33;;;;;13.23;99.51;99972.03;4888742;29;44758;-87
2023/12/08 05:10:25;;;;;;;;;7.33;7.33;;;;;13.18;99.54;99964.06;4889817;29;45637;-87
2023/12/08 05:13:38;;;;;;;;;10.00;5.67;;;;;13.35;99.28;99947.91;4890272;29;46998;-88
2023/12/08 05:16:04;;;;;;;;;9.00;6.33;;;;;13.36;99.44;99990.63;4886811;29;45447;-88
2023/12/08 05:18:29;;;;;;;;;8.33;7.00;;;;;13.33;99.22;99987.09;4889062;29;45354;-88
2023/12/08 05:20:55;;;;;;;;;14.00;9.67;;;;;13.30;98.99;99977.34;4888155;29;45547;-87
2023/12/08 05:23:20;;;;;;;;;8.67;7.33;;;;;13.39;99.48;99979.94;4907510;29;45780;-87
2023/12/08 05:25:46;;;;;;;;;8.67;8.00;;;;;13.37;99.17;99979.06;4905182;29;45468;-87
2023/12/08 05:28:11;;;;;;;;;15.33;10.00;;;;;13.41;99.02;99979.91;4887413;29;45429;-87
2023/12/08 05:30:36;;;;;;;;;10.00;9.00;;;;;13.41;98.79;99985.25;4888279;29;45638;-87
2023/12/08 05:33:02;;;;;;;;;10.33;8.33;;;;;13.30;99.06;99960.44;4904790;28;45266;-87
2023/12/08 05:35:28;;;;;;;;;9.00;8.33;;;;;13.43;99.11;99994.13;4884081;29;45420;-87
2023/12/08 05:37:53;;;;;;;;;14.00;11.00;;;;;13.41;98.65;99993.25;4883378;29;45480;-87
2023/12/08 05:40:19;;;;;;;;;11.00;9.33;;;;;13.40;98.46;100004.84;4868359;29;45447;-86
2023/12/08 05:42:52;;;;;;;;;11.33;8.67;;;;;13.54;98.92;99992.25;4886831;29;45587;-88
2023/12/08 05:45:18;;;;;;;;;11.00;9.00;;;;;13.21;98.70;99974.75;4868160;29;45434;-86
2023/12/08 05:47:44;;;;;;;;;12.33;9.00;;;;;13.43;97.81;100009.28;4885536;28;45284;-88
2023/12/08 05:50:10;;;;;;;;;9.67;8.67;;;;;13.40;97.76;100010.19;4885811;28;45427;-88
2023/12/08 05:53:04;;;;;;;;;12.67;10.00;;;;;13.64;97.71;100006.41;4869320;29;47248;-88
2023/12/08 05:55:30;;;;;;;;;12.67;7.33;;;;;13.37;98.13;100000.44;4871489;29;44863;-88
2023/12/08 05:57:56;;;;;;;;;10.33;9.00;;;;;13.24;97.28;99987.16;4891989;29;45420;-88
2023/12/08 06:00:21;;;;;;;;;16.00;12.33;;;;;13.15;97.88;99983.69;4873906;29;45914;-88
2023/12/08 06:03:26;;;;;;;;;9.67;9.67;;;;;13.69;97.75;100020.59;4873748;29;46879;-87
2023/12/08 06:05:55;;;;;;;;;8.67;8.67;;;;;13.16;97.78;99988.09;4867951;29;45891;-88
2023/12/08 06:08:20;;;;;;;;;8.00;7.67;;;;;13.28;97.47;100005.81;4889961;29;45293;-86
2023/12/08 06:10:45;;;;;;;;;8.00;8.00;;;;;13.36;97.62;100025.34;4873054;29;45470;-88
2023/12/08 06:13:13;;;;;;;;;10.00;8.00;;;;;13.36;96.83;100029.81;4870713;29;48365;-88
2023/12/08 06:15:39;;;;;;;;;9.33;7.67;;;;;13.36;97.18;100045.84;4870196;29;44952;-87
2023/12/08 06:18:04;;;;;;;;;12.67;8.00;;;;;13.33;96.57;100036.09;4871009;29;44953;-88
2023/12/08 06:20:30;;;;;;;;;7.67;5.00;;;;;13.29;95.21;100045.03;4871265;29;45428;-87
2023/12/08 06:23:04;;;;;;;;;7.00;7.00;;;;;13.43;96.56;100041.31;4874155;29;47010;-87
2023/12/08 06:25:29;;;;;;;;;8.67;8.00;;;;;13.01;96.55;100017.63;4873423;29;44872;-87
2023/12/08 06:27:55;;;;;;;;;8.33;7.67;;;;;13.17;96.85;100050.44;4872396;29;45518;-87
2023/12/08 06:30:20;;;;;;;;;7.67;7.67;;;;;13.19;96.28;100048.63;4871996;29;45475;-87
2023/12/08 06:33:26;;;;;;;;;9.33;9.33;;;;;13.58;96.16;100057.22;4889186;29;45576;-88
2023/12/08 06:35:52;;;;;;;;;14.00;13.00;;;;;13.18;96.23;100060.19;4887964;29;45517;-88
2023/12/08 06:38:18;;;;;;;;;10.33;9.67;;;;;13.13;96.35;100057.56;4891168;29;45884;-88
2023/12/08 06:40:43;;;;;;;;;13.33;12.33;;;;;13.09;95.97;100052.25;4889927;29;45389;-87
2023/12/08 06:43:36;;;;;;;;;8.33;8.33;;;;;13.35;96.33;100055.66;4909371;28;46203;-87
2023/12/08 06:46:01;;;;;;;;;20.00;15.67;;;;;12.98;97.01;100045.19;4874816;29;45877;-88
2023/12/08 06:48:28;;;;;;;;;8.00;7.00;;;;;12.95;96.27;100042.56;4889466;29;45456;-88
2023/12/08 06:50:53;;;;;;;;;10.67;8.67;;;;;13.11;96.78;100077.13;4908425;29;45460;-88
2023/12/08 06:53:19;;;;;;;;;11.33;9.33;;;;;12.87;96.77;100035.50;4892513;29;47469;-87
2023/12/08 06:55:44;;;;;;;;;14.00;9.00;;;;;13.11;96.47;100069.13;4907908;29;45361;-88
2023/12/08 06:58:11;;;;;;;;;15.67;11.33;;;;;13.20;96.42;100055.72;4906484;29;45285;-88
2023/12/08 07:00:36;;;;;;;;;13.67;10.00;;;;;13.12;96.27;100085.16;4909218;28;45503;-86
2023/12/08 07:03:02;;;;;;;;;11.67;7.00;;;;;13.21;96.75;100102.91;4907324;29;45392;-88
2023/12/08 07:05:34;;;;;;;;;15.67;12.33;;;;;13.30;96.37;100072.59;4889787;29;45551;-87
2023/12/08 07:07:59;;;;;;;;;11.00;9.00;;;;;13.06;95.85;100087.84;4911284;28;45388;-86
2023/12/08 07:10:25;;;;;;;;;17.67;15.33;;;;;12.92;95.24;100066.59;4914664;29;44820;-85
2023/12/08 07:12:50;;;;;;;;;12.33;9.00;;;;;13.16;95.34;100107.38;4894832;29;47175;-85
2023/12/08 07:15:16;;;;;;;;;12.00;10.00;;;;;13.17;96.57;100103.81;4910992;29;44813;-88
2023/12/08 07:17:42;;;;;;;;;15.00;13.67;;;;;13.16;95.79;100102.03;4908960;29;45321;-90
2023/12/08 07:20:09;;;;;;;;;9.67;9.67;;;;;13.07;96.26;100105.66;4913230;29;45607;-90
2023/12/08 07:22:35;;;;;;;;;17.00;11.33;;;;;12.98;96.70;100093.25;4913595;29;45369;-85
2023/12/08 07:25:07;;;;;;;;;15.33;9.00;;;;;13.10;96.97;100081.59;4876207;29;44992;-88
2023/12/08 07:27:33;;;;;;;;;16.00;12.00;;;;;13.15;97.25;100138.53;4893841;29;44849;-87
2023/12/08 07:29:58;;;;;;;;;10.33;8.67;;;;;13.13;96.53;100143.00;4911390;29;44879;-87
2023/12/08 07:32:24;;;;;;;;;15.00;13.67;;;;;13.00;96.94;100134.16;4910826;29;46867;-88
2023/12/08 07:34:50;;;;;;;;;11.33;11.33;;;;;12.99;96.93;100121.72;4888628;29;45520;-87
2023/12/08 07:37:16;;;;;;;;;11.67;10.67;;;;;12.96;97.13;100116.38;4872752;28;44926;-88
2023/12/08 07:39:42;;;;;;;;;14.00;13.33;;;;;13.24;97.39;100148.25;4890436;29;44885;-87
2023/12/08 07:42:08;;;;;;;;;11.67;11.67;;;;;13.16;96.75;100136.75;4873269;29;47181;-88
2023/12/08 07:44:34;;;;;;;;;12.00;12.00;;;;;13.12;96.45;100140.34;4872383;29;45498;-88
2023/12/08 07:47:00;;;;;;;;;14.33;12.00;;;;;13.08;96.64;100136.78;4872876;29;45246;-87
2023/12/08 07:49:28;;;;;;;;;16.67;16.67;;;;;13.12;96.62;100138.53;4891412;29;45404;-88
2023/12/08 07:51:53;;;;;;;;;15.33;11.33;;;;;13.08;97.36;100130.56;4876482;29;47216;-87
2023/12/08 08:01:12;;;;;;;;;14.00;12.00;;;;;13.18;97.31;100127.81;4783157;29;45118;-86
2023/12/08 08:03:45;;;;;;;;;13.33;10.33;;;;;13.42;97.57;100167.78;4786155;29;47220;-87
2023/12/08 08:06:28;;;;;;;;;15.00;12.33;;;;;13.58;96.91;100161.44;4786663;29;45151;-87
2023/12/08 08:09:08;;;;;;;;;18.67;15.33;;;;;13.20;97.00;100146.50;4786751;29;44920;-86
2023/12/08 09:02:54;;;;;;;;;20.67;19.33;;;;;14.32;94.22;100191.06;4738941;23;45629;-85
2023/12/08 09:09:43;;;;;;;;;21.33;20.33;;;;;14.12;92.57;100148.47;4780767;29;44897;-85
2023/12/08 09:54:24;;;;;;;;;;;;;;;;;;;;;
2023/12/08 09:57:53;;;;;;;;;;;;;;;;;;;;;
2023/12/08 10:04:41;;;;;;;;;;;;;;;;;;;;;
2023/12/08 10:07:52;;;;;;;;;22.00;20.67;;;;;15.52;86.74;100243.19;4802320;29;72376;-89
2023/12/08 11:55:29;;;;;;;;;10.00;5.67;;;;;16.29;83.95;100225.03;3980056;23;46410;-83
2023/12/08 12:30:39;;;;;;;;;;;;;;;;;;;;;
2023/12/08 13:01:41;;;;;;;;;5.67;5.00;;;;;16.27;80.74;100248.31;5293037;23;46048;-84
2023/12/08 13:07:11;;;;;;;;;5.00;4.33;;;;;16.00;81.75;100234.47;5133774;23;45642;-87
2023/12/08 13:10:05;;;;;;;;;;;;;;;;;;;;;
2023/12/08 13:12:51;;;;;;;;;5.00;5.00;;;;;16.35;80.38;100241.03;5346555;23;46115;-86
2023/12/08 13:15:22;;;;;;;;;9.00;7.00;;;;;16.13;80.99;100237.81;4877892;29;44816;-86
2023/12/08 13:17:53;;;;;;;;;4.00;3.00;;;;;16.57;80.60;100268.38;4854451;29;45471;-86
2023/12/08 13:21:07;;;;;;;;;5.00;3.25;;;;;16.78;79.75;100264.38;4860065;29;44945;-85
2023/12/08 13:51:25;;;;;;;;;12.00;5.67;;;;;16.58;78.99;100254.91;4950245;23;47478;-87
2023/12/08 13:53:58;;;;;;;;;2.67;1.67;;;;;16.75;79.00;100291.31;4884820;28;45011;-85
2023/12/08 14:33:04;;;;;;;;;5.75;5.75;;;;;16.93;78.89;100331.28;5316653;23;46671;-86
2023/12/08 14:56:31;;;;;;;;;;;;;;;;;;;;;
2023/12/08 14:59:11;;;;;;;;;7.67;6.00;;;;;16.17;79.71;100331.63;4828341;29;44972;-87
2023/12/08 15:05:04;;;;;;;;;7.67;6.00;;;;;16.06;80.58;100325.56;4838741;29;46330;-86
2023/12/08 15:45:23;;;;;;;;;4.00;3.33;;;;;14.33;90.98;100379.22;5866153;23;46233;-84
2023/12/08 16:58:02;;;;;;;;;7.00;7.00;;;;;12.88;95.74;100486.53;4983526;23;46107;-82
2023/12/08 17:03:48;;;;;;;;;10.00;9.00;;;;;12.75;95.93;100482.06;5509334;23;46393;-84
2023/12/08 17:06:14;;;;;;;;;8.33;8.00;;;;;12.67;95.91;100502.53;4901623;29;44864;-84
2023/12/08 17:13:55;;;;;;;;;9.33;8.00;;;;;12.74;96.68;100509.63;5033450;23;45479;-85
2023/12/08 17:16:26;;;;;;;;;14.33;14.33;;;;;12.58;97.14;100484.69;4893256;29;45084;-85
2023/12/08 17:18:52;;;;;;;;;18.00;12.00;;;;;12.58;97.27;100514.97;4904531;29;47200;-84
2023/12/08 17:29:08;;;;;;;;;17.00;15.33;;;;;12.50;97.53;100503.38;5233474;23;45746;-85
2023/12/08 17:31:49;;;;;;;;;14.33;14.33;;;;;12.53;97.22;100521.16;4895577;29;44775;-85
2023/12/08 23:23:56;;;;;;;;;7.33;5.33;;;;;10.82;100.00;100586.59;4946578;23;45562;-84
2023/12/08 23:26:21;;;;;;;;;6.67;4.67;;;;;10.53;100.00;100560.59;4868537;29;45352;-86
2023/12/08 23:28:46;;;;;;;;;6.67;4.00;;;;;10.66;100.00;100592.63;4886194;29;45348;-86
2023/12/08 23:31:12;;;;;;;;;7.33;6.00;;;;;10.68;100.00;100585.56;4884447;29;45463;-86
2023/12/08 23:33:37;;;;;;;;;7.67;5.67;;;;;10.64;100.00;100583.75;4883260;29;45732;-86
2023/12/08 23:36:03;;;;;;;;;8.67;6.67;;;;;10.62;100.00;100581.06;4865681;29;45552;-85
2023/12/08 23:38:28;;;;;;;;;7.67;4.00;;;;;10.59;100.00;100565.09;4866092;29;45457;-86
2023/12/08 23:40:54;;;;;;;;;5.67;3.00;;;;;10.53;100.00;100571.22;4865816;29;47504;-85
2023/12/08 23:43:19;;;;;;;;;6.67;6.00;;;;;10.55;100.00;100564.16;4866118;29;45543;-85
2023/12/08 23:45:44;;;;;;;;;7.33;6.00;;;;;10.54;100.00;100569.44;4867120;29;47002;-86
2023/12/08 23:48:10;;;;;;;;;8.33;5.33;;;;;10.55;100.00;100571.25;4868173;29;53351;-86
2023/12/08 23:50:35;;;;;;;;;9.33;8.00;;;;;10.53;100.00;100573.88;4885894;29;45778;-86
2023/12/08 23:53:00;;;;;;;;;3.67;3.00;;;;;10.51;100.00;100566.78;4885953;29;45475;-86
2023/12/08 23:55:26;;;;;;;;;12.33;8.00;;;;;10.50;100.00;100557.00;4885402;29;45415;-86
2023/12/08 23:57:53;;;;;;;;;6.00;6.00;;;;;10.49;100.00;100560.56;4867539;29;45509;-86
